createdAt,value
2023-01-17T00:02:50.600Z,0.60
2023-01-17T00:06:11.047Z,0.60
2023-01-17T00:09:31.994Z,0.80
2023-01-17T00:12:35.139Z,0.73
2023-01-17T00:15:39.998Z,0.52
2023-01-17T00:19:03.080Z,0.80
2023-01-17T00:22:27.911Z,0.80
2023-01-17T00:25:50.224Z,0.50
2023-01-17T00:28:51.821Z,0.90
2023-01-17T00:31:54.771Z,0.70
2023-01-17T00:34:56.365Z,0.82
2023-01-17T00:38:03.126Z,0.90
2023-01-17T00:41:06.274Z,0.60
2023-01-17T00:44:26.523Z,0.80
2023-01-17T00:47:48.199Z,1.00
2023-01-17T00:51:08.409Z,0.93
2023-01-17T00:54:29.348Z,0.73
2023-01-17T00:57:49.785Z,0.90
2023-01-17T01:01:10.162Z,0.70
2023-01-17T01:04:31.840Z,0.60
2023-01-17T01:07:52.123Z,0.87
2023-01-17T01:11:12.369Z,1.10
2023-01-17T01:14:32.648Z,0.77
2023-01-17T01:17:52.962Z,0.53
2023-01-17T01:21:14.930Z,0.80
2023-01-17T01:24:35.136Z,0.80
2023-01-17T01:27:55.714Z,1.37
2023-01-17T01:31:18.211Z,1.00
2023-01-17T01:34:20.856Z,0.80
2023-01-17T01:37:24.755Z,0.90
2023-01-17T01:43:42.949Z,0.90
2023-01-17T01:46:45.533Z,0.90
2023-01-17T01:49:48.741Z,0.80
2023-01-17T01:52:56.230Z,0.90
2023-01-17T01:55:58.902Z,0.77
2023-01-17T01:59:04.542Z,0.57
2023-01-17T02:02:07.525Z,1.00
2023-01-17T02:05:10.790Z,0.90
2023-01-17T02:08:16.763Z,0.95
2023-01-17T02:11:19.738Z,0.93
2023-01-17T02:14:23.426Z,0.98
2023-01-17T02:17:35.022Z,0.80
2023-01-17T02:20:57.084Z,0.70
2023-01-17T02:24:17.147Z,0.80
2023-01-17T02:27:25.991Z,0.80
2023-01-17T02:30:34.150Z,1.20
2023-01-17T02:33:40.338Z,0.90
2023-01-17T02:36:47.013Z,0.90
2023-01-17T02:39:52.900Z,0.90
2023-01-17T02:42:59.147Z,0.97
2023-01-17T02:46:03.148Z,0.97
2023-01-17T02:49:05.777Z,1.30
2023-01-17T02:52:21.112Z,0.77
2023-01-17T02:55:31.864Z,0.60
2023-01-17T02:58:50.057Z,0.97
2023-01-17T03:02:06.806Z,0.73
2023-01-17T03:05:13.404Z,0.87
2023-01-17T03:08:16.906Z,0.70
2023-01-17T03:11:19.901Z,0.50
2023-01-17T03:14:22.565Z,0.60
2023-01-17T03:17:29.819Z,0.80
2023-01-17T03:20:32.496Z,1.30
2023-01-17T03:23:35.393Z,0.77
2023-01-17T03:26:37.948Z,0.80
2023-01-17T03:29:40.984Z,0.80
2023-01-17T03:32:44.942Z,1.10
2023-01-17T03:35:47.711Z,1.10
2023-01-17T03:38:50.274Z,0.70
2023-01-17T03:41:52.852Z,0.60
2023-01-17T03:44:55.391Z,0.60
2023-01-17T03:47:59.709Z,3.20
2023-01-17T03:51:02.214Z,1.13
2023-01-17T03:54:04.932Z,0.80
2023-01-17T03:57:08.531Z,0.73
2023-01-17T04:00:12.321Z,0.68
2023-01-17T04:06:18.684Z,0.50
2023-01-17T04:09:21.281Z,0.70
2023-01-17T04:12:23.899Z,0.67
2023-01-17T04:15:26.581Z,0.80
2023-01-17T04:18:30.765Z,0.80
2023-01-17T04:21:33.533Z,0.83
2023-01-17T04:24:36.431Z,1.13
2023-01-17T04:27:39.020Z,1.15
2023-01-17T04:30:41.785Z,0.83
2023-01-17T04:33:45.739Z,0.83
2023-01-17T04:39:50.933Z,1.03
2023-01-17T04:42:54.220Z,1.20
2023-01-17T04:45:57.253Z,1.05
2023-01-17T04:49:01.457Z,1.35
2023-01-17T04:52:04.189Z,2.83
2023-01-17T04:55:07.891Z,1.33
2023-01-17T04:58:14.104Z,1.30
2023-01-17T05:01:16.861Z,1.00
2023-01-17T05:04:20.945Z,0.90
2023-01-17T05:07:23.658Z,1.00
2023-01-17T05:10:26.892Z,0.67
2023-01-17T05:13:29.694Z,0.90
2023-01-17T05:16:32.251Z,1.00
2023-01-17T05:19:36.217Z,0.70
2023-01-17T05:22:38.816Z,1.03
2023-01-17T05:25:44.884Z,1.00
2023-01-17T05:28:47.617Z,0.50
2023-01-17T05:31:50.289Z,0.80
2023-01-17T05:34:54.372Z,0.70
2023-01-17T05:37:57.393Z,0.67
2023-01-17T05:41:00.524Z,1.15
2023-01-17T05:44:03.445Z,0.60
2023-01-17T05:47:06.194Z,0.70
2023-01-17T05:50:11.931Z,0.77
2023-01-17T05:53:16.352Z,0.60
2023-01-17T05:56:18.963Z,0.60
2023-01-17T05:59:32.385Z,0.70
2023-01-17T06:02:39.008Z,0.87
2023-01-17T06:05:44.838Z,1.10
2023-01-17T06:08:47.452Z,0.70
2023-01-17T06:11:50.043Z,0.63
2023-01-17T06:14:52.683Z,1.00
2023-01-17T06:17:55.574Z,0.80
2023-01-17T06:20:59.595Z,0.90
2023-01-17T06:24:04.066Z,1.10
2023-01-17T06:27:06.996Z,1.10
2023-01-17T06:30:11.089Z,1.60
2023-01-17T06:33:14.263Z,1.00
2023-01-17T06:36:18.138Z,1.58
2023-01-17T06:42:23.382Z,1.17
2023-01-17T06:45:26.007Z,1.00
2023-01-17T06:48:28.657Z,1.30
2023-01-17T06:51:32.620Z,0.83
2023-01-17T06:54:35.204Z,0.90
2023-01-17T06:57:37.953Z,0.80
2023-01-17T07:00:41.168Z,0.87
2023-01-17T07:03:43.982Z,0.77
2023-01-17T07:06:47.956Z,1.03
2023-01-17T07:09:50.530Z,1.20
2023-01-17T07:12:53.367Z,0.90
2023-01-17T07:15:55.960Z,0.80
2023-01-17T07:18:58.573Z,0.90
2023-01-17T07:22:02.547Z,0.90
2023-01-17T07:25:05.845Z,1.33
2023-01-17T07:28:08.648Z,1.17
2023-01-17T07:31:11.345Z,1.63
2023-01-17T07:34:14.123Z,1.20
2023-01-17T07:37:19.905Z,1.40
2023-01-17T07:40:23.519Z,1.53
2023-01-17T07:43:26.213Z,1.42
2023-01-17T07:46:29.166Z,1.20
2023-01-17T07:49:31.873Z,1.55
2023-01-17T07:52:35.932Z,1.33
2023-01-17T07:55:38.729Z,1.80
2023-01-17T07:58:41.501Z,1.20
2023-01-17T08:01:44.345Z,1.10
2023-01-17T08:04:47.058Z,1.40
2023-01-17T08:07:51.121Z,1.20
2023-01-17T08:10:53.853Z,1.40
2023-01-17T08:13:59.397Z,1.53
2023-01-17T08:17:05.571Z,1.83
2023-01-17T08:20:08.532Z,1.20
2023-01-17T08:23:12.789Z,1.02
2023-01-17T08:26:21.315Z,1.33
2023-01-17T08:29:24.650Z,1.53
2023-01-17T08:32:27.359Z,1.80
2023-01-17T08:35:30.411Z,2.13
2023-01-17T08:38:34.328Z,1.45
2023-01-17T08:41:37.232Z,1.03
2023-01-17T08:44:40.137Z,0.55
2023-01-17T08:47:43.245Z,0.60
2023-01-17T08:50:46.259Z,1.10
2023-01-17T08:53:50.403Z,0.85
2023-01-17T08:56:55.600Z,0.90
2023-01-17T08:59:59.052Z,0.90
2023-01-17T09:03:02.341Z,0.73
2023-01-17T09:06:05.932Z,1.15
2023-01-17T09:09:11.077Z,1.00
2023-01-17T09:12:14.020Z,1.33
2023-01-17T09:15:20.118Z,1.08
2023-01-17T09:18:23.089Z,1.03
2023-01-17T09:21:26.383Z,1.00
2023-01-17T09:24:31.262Z,1.05
2023-01-17T09:27:34.017Z,1.00
2023-01-17T09:30:36.643Z,1.10
2023-01-17T09:33:41.136Z,1.43
2023-01-17T09:36:43.905Z,1.27
2023-01-17T09:39:47.904Z,1.10
2023-01-17T09:42:52.183Z,2.50
2023-01-17T09:45:54.863Z,1.53
2023-01-17T09:49:03.115Z,1.30
2023-01-17T09:52:06.420Z,1.50
2023-01-17T09:55:14.478Z,1.67
2023-01-17T09:58:21.799Z,1.37
2023-01-17T10:01:28.367Z,1.73
2023-01-17T10:04:51.387Z,2.00
2023-01-17T10:08:04.838Z,1.87
2023-01-17T10:11:25.288Z,1.63
2023-01-17T10:14:41.329Z,1.53
2023-01-17T10:17:53.939Z,1.20
2023-01-17T10:21:00.667Z,1.30
2023-01-17T10:24:31.705Z,1.97
2023-01-17T10:27:39.230Z,1.60
2023-01-17T10:30:48.880Z,1.60
2023-01-17T10:33:53.617Z,1.50
2023-01-17T10:37:00.993Z,1.70
2023-01-17T10:40:14.049Z,0.90
2023-01-17T10:43:21.254Z,1.40
2023-01-17T10:46:28.589Z,1.20
2023-01-17T10:49:31.760Z,1.10
2023-01-17T10:52:43.166Z,1.20
2023-01-17T10:55:49.356Z,1.97
2023-01-17T10:58:58.910Z,1.40
2023-01-17T11:02:06.822Z,1.33
2023-01-17T11:05:20.432Z,1.20
2023-01-17T11:08:22.968Z,1.27
2023-01-17T11:11:30.163Z,1.60
2023-01-17T11:14:35.959Z,1.70
2023-01-17T11:17:41.158Z,0.90
2023-01-17T11:20:44.229Z,1.23
2023-01-17T11:23:48.282Z,1.13
2023-01-17T11:26:51.112Z,0.97
2023-01-17T11:30:07.390Z,1.00
2023-01-17T11:33:31.698Z,0.83
2023-01-17T11:39:37.620Z,1.00
2023-01-17T11:42:40.221Z,1.00
2023-01-17T11:45:44.174Z,0.50
2023-01-17T11:48:50.309Z,0.73
2023-01-17T11:51:56.092Z,1.17
2023-01-17T11:54:59.085Z,0.57
2023-01-17T11:58:01.794Z,0.50
2023-01-17T12:01:27.353Z,0.70
2023-01-17T12:04:32.589Z,0.77
2023-01-17T12:07:39.378Z,0.50
2023-01-17T12:10:49.670Z,1.10
2023-01-17T12:14:03.636Z,0.60
2023-01-17T12:20:24.147Z,0.73
2023-01-17T12:23:36.174Z,0.50
2023-01-17T12:26:41.605Z,0.60
2023-01-17T12:29:47.941Z,0.50
2023-01-17T12:33:08.498Z,0.40
2023-01-17T12:36:17.610Z,0.60
2023-01-17T12:39:25.602Z,0.50
2023-01-17T12:42:32.888Z,0.50
2023-01-17T12:45:39.323Z,0.53
2023-01-17T12:48:43.792Z,0.50
2023-01-17T12:51:50.158Z,0.63
2023-01-17T12:54:56.216Z,0.87
2023-01-17T12:58:01.655Z,0.83
2023-01-17T13:01:08.067Z,0.70
2023-01-17T13:04:19.010Z,0.70
2023-01-17T13:07:29.286Z,0.67
2023-01-17T13:10:35.359Z,0.70
2023-01-17T13:13:39.205Z,0.80
2023-01-17T13:16:44.560Z,0.70
2023-01-17T13:19:51.632Z,1.10
2023-01-17T13:22:55.421Z,1.30
2023-01-17T13:29:06.938Z,0.80
2023-01-17T13:32:19.011Z,0.60
2023-01-17T13:35:39.860Z,0.63
2023-01-17T13:38:55.775Z,1.00
2023-01-17T13:42:08.903Z,0.70
2023-01-17T13:45:19.590Z,0.85
2023-01-17T13:48:31.046Z,1.73
2023-01-17T13:52:03.390Z,0.70
2023-01-17T13:55:07.159Z,0.70
2023-01-17T13:58:28.111Z,0.60
2023-01-17T14:01:50.298Z,0.83
2023-01-17T14:05:10.962Z,0.73
2023-01-17T14:08:17.222Z,0.70
2023-01-17T14:11:20.170Z,0.60
2023-01-17T14:14:45.891Z,0.80
2023-01-17T14:17:55.859Z,0.67
2023-01-17T14:21:08.187Z,0.73
2023-01-17T14:24:17.728Z,1.30
2023-01-17T14:27:24.610Z,1.00
2023-01-17T14:30:28.952Z,0.80
2023-01-17T14:33:36.042Z,0.73
2023-01-17T14:36:39.464Z,0.90
2023-01-17T14:39:47.242Z,0.95
2023-01-17T14:42:56.047Z,1.20
2023-01-17T14:46:00.292Z,0.70
2023-01-17T14:49:05.823Z,1.17
2023-01-17T14:52:16.767Z,0.80
2023-01-17T14:55:21.391Z,1.10
2023-01-17T14:58:25.685Z,1.47
2023-01-17T15:01:28.513Z,1.43
2023-01-17T15:04:35.573Z,1.40
2023-01-17T15:07:38.500Z,1.33
2023-01-17T15:10:49.606Z,1.48
2023-01-17T15:13:54.890Z,1.43
2023-01-17T15:16:57.495Z,1.77
2023-01-17T15:20:02.483Z,1.93
2023-01-17T15:23:06.515Z,1.67
2023-01-17T15:26:14.746Z,2.20
2023-01-17T15:29:23.070Z,2.60
2023-01-17T15:32:28.046Z,2.20
2023-01-17T15:35:30.708Z,1.80
2023-01-17T15:38:38.749Z,3.20
2023-01-17T15:41:43.398Z,2.63
2023-01-17T15:44:49.219Z,2.23
2023-01-17T15:47:52.475Z,1.97
2023-01-17T15:50:59.205Z,2.13
2023-01-17T15:54:37.850Z,1.90
2023-01-17T15:57:44.121Z,1.87
2023-01-17T16:00:47.126Z,2.27
2023-01-17T16:03:54.929Z,2.35
2023-01-17T16:07:10.024Z,1.70
2023-01-17T16:10:17.691Z,2.60
2023-01-17T16:13:21.870Z,2.30
2023-01-17T16:16:26.669Z,3.10
2023-01-17T16:19:29.408Z,2.63
2023-01-17T16:22:32.734Z,2.83
2023-01-17T16:25:36.977Z,2.60
2023-01-17T16:28:40.887Z,2.17
2023-01-17T16:34:45.923Z,4.83
2023-01-17T16:37:50.641Z,5.63
2023-01-17T16:40:54.016Z,5.07
2023-01-17T16:44:02.922Z,4.60
2023-01-17T16:47:05.537Z,4.07
2023-01-17T16:50:09.277Z,3.33
2023-01-17T16:56:17.743Z,2.50
2023-01-17T16:59:21.721Z,3.00
2023-01-17T17:02:24.519Z,3.00
2023-01-17T17:05:27.556Z,2.63
2023-01-17T17:08:30.295Z,2.30
2023-01-17T17:11:32.872Z,2.10
2023-01-17T17:14:37.336Z,2.70
2023-01-17T17:17:41.393Z,2.17
2023-01-17T17:20:44.309Z,2.87
2023-01-17T17:23:50.820Z,2.80
2023-01-17T17:26:53.372Z,2.40
2023-01-17T17:29:57.244Z,2.33
2023-01-17T17:36:03.759Z,3.20
2023-01-17T17:39:09.140Z,2.93
2023-01-17T17:42:12.041Z,3.00
2023-01-17T17:45:16.193Z,2.67
2023-01-17T17:48:18.757Z,2.80
2023-01-17T17:51:26.242Z,2.57
2023-01-17T17:54:28.921Z,2.53
2023-01-17T17:57:31.517Z,3.07
2023-01-17T18:00:35.606Z,3.17
2023-01-17T18:03:38.217Z,3.10
2023-01-17T18:06:40.987Z,3.70
2023-01-17T18:09:43.559Z,3.13
2023-01-17T18:12:46.212Z,3.40
2023-01-17T18:15:50.300Z,3.27
2023-01-17T18:18:54.514Z,2.90
2023-01-17T18:21:58.088Z,2.73
2023-01-17T18:25:00.793Z,3.20
2023-01-17T18:28:04.092Z,3.03
2023-01-17T18:31:09.005Z,3.25
2023-01-17T18:34:13.638Z,3.27
2023-01-17T18:37:16.577Z,3.77
2023-01-17T18:40:19.460Z,3.40
2023-01-17T18:43:22.155Z,3.17
2023-01-17T18:46:27.012Z,3.03
2023-01-17T18:49:29.691Z,3.73
2023-01-17T18:52:33.297Z,3.23
2023-01-17T18:55:35.869Z,2.78
2023-01-17T18:58:40.455Z,3.00
2023-01-17T19:01:44.609Z,2.40
2023-01-17T19:04:47.315Z,3.23
2023-01-17T19:07:50.340Z,2.30
2023-01-17T19:10:52.897Z,3.00
2023-01-17T19:13:56.033Z,2.50
2023-01-17T19:17:01.493Z,2.17
2023-01-17T19:20:06.391Z,1.90
2023-01-17T19:23:09.013Z,2.23
2023-01-17T19:26:13.867Z,2.67
2023-01-17T19:29:16.462Z,3.00
2023-01-17T19:32:20.440Z,2.80
2023-01-17T19:35:24.179Z,3.17
2023-01-17T19:38:27.029Z,3.72
2023-01-17T19:41:30.744Z,3.50
2023-01-17T19:44:33.355Z,3.67
2023-01-17T19:47:37.429Z,4.43
2023-01-17T19:50:40.161Z,3.40
2023-01-17T19:53:43.579Z,3.30
2023-01-17T19:56:47.282Z,2.88
2023-01-17T19:59:50.299Z,3.97
2023-01-17T20:02:54.439Z,3.47
2023-01-17T20:05:57.527Z,3.43
2023-01-17T20:09:00.252Z,3.80
2023-01-17T20:12:02.961Z,3.73
2023-01-17T20:15:06.533Z,3.43
2023-01-17T20:18:12.539Z,3.92
2023-01-17T20:21:17.163Z,4.47
2023-01-17T20:24:19.846Z,4.20
2023-01-17T20:27:26.589Z,4.63
2023-01-17T20:30:31.957Z,4.57
2023-01-17T20:33:36.246Z,5.10
2023-01-17T20:36:39.722Z,4.73
2023-01-17T20:39:42.443Z,4.97
2023-01-17T20:42:45.301Z,4.50
2023-01-17T20:45:55.329Z,4.37
2023-01-17T20:49:01.103Z,3.93
2023-01-17T20:52:06.052Z,5.37
2023-01-17T20:55:09.604Z,4.83
2023-01-17T20:58:12.248Z,4.93
2023-01-17T21:01:19.785Z,4.63
2023-01-17T21:04:26.115Z,4.20
2023-01-17T21:07:28.948Z,5.30
2023-01-17T21:10:31.628Z,5.00
2023-01-17T21:13:34.855Z,5.10
2023-01-17T21:16:37.545Z,4.93
2023-01-17T21:19:41.507Z,4.83
2023-01-17T21:22:44.430Z,5.07
2023-01-17T21:25:56.705Z,5.38
2023-01-17T21:29:00.128Z,5.33
2023-01-17T21:32:03.063Z,5.22
2023-01-17T21:35:07.800Z,5.18
2023-01-17T21:38:10.578Z,5.13
2023-01-17T21:41:13.205Z,4.73
2023-01-17T21:44:19.224Z,4.83
2023-01-17T21:47:21.949Z,4.80
2023-01-17T21:50:33.333Z,4.73
2023-01-17T21:53:36.634Z,5.17
2023-01-17T21:56:56.906Z,4.50
2023-01-17T21:59:59.545Z,5.20
2023-01-17T22:03:02.325Z,6.00
2023-01-17T22:06:07.331Z,4.67
2023-01-17T22:09:09.990Z,5.53
2023-01-17T22:12:12.545Z,4.93
2023-01-17T22:15:15.584Z,5.47
2023-01-17T22:18:18.167Z,5.72
2023-01-17T22:21:24.312Z,4.90
2023-01-17T22:24:27.170Z,5.17
2023-01-17T22:27:29.782Z,5.03
2023-01-17T22:30:32.379Z,4.90
2023-01-17T22:33:34.999Z,5.13
2023-01-17T22:36:39.178Z,5.20
2023-01-17T22:39:42.063Z,5.20
2023-01-17T22:42:44.911Z,5.30
2023-01-17T22:45:47.615Z,4.53
2023-01-17T22:48:50.433Z,5.17
2023-01-17T22:51:54.406Z,4.50
2023-01-17T22:54:57.034Z,4.70
2023-01-17T22:57:59.775Z,5.27
2023-01-17T23:01:06.415Z,4.50
2023-01-17T23:04:11.718Z,5.10
2023-01-17T23:07:16.470Z,5.33
2023-01-17T23:10:40.011Z,5.47
2023-01-17T23:13:42.685Z,6.00
2023-01-17T23:17:04.561Z,4.70
2023-01-17T23:20:08.733Z,4.73
2023-01-17T23:23:12.676Z,5.03
2023-01-17T23:26:16.889Z,5.20
2023-01-17T23:29:18.816Z,5.07
2023-01-17T23:32:21.417Z,5.03
2023-01-17T23:35:26.359Z,4.30
2023-01-17T23:38:30.330Z,4.77
2023-01-17T23:41:50.658Z,4.20
2023-01-17T23:44:53.269Z,4.63
2023-01-17T23:47:56.056Z,4.53
2023-01-17T23:51:00.231Z,4.60
2023-01-17T23:54:06.222Z,4.50
2023-01-17T23:57:08.819Z,4.67
